This is the latest recevied weather packets stored in our database for station/object DD8XX-10. If no packets are shown the sender has not sent any weather packets the latest 10 day(s).
| Time | Temp. | Humidity | Pressure | Rain* | Wind** | Luminosity | Snow |
|---|---|---|---|---|---|---|---|
| 1777539403 | 12.22° C | 42% | 1029.5 hPa | - | - | - | - |
| 1777538503 | 11.67° C | 45% | 1029.7 hPa | - | - | - | - |
| 1777537603 | 11.11° C | 47% | 1029.6 hPa | - | - | - | - |
| 1777536703 | 11.11° C | 47% | 1029.5 hPa | - | - | - | - |
| 1777535803 | 10.56° C | 52% | 1029.5 hPa | - | - | - | - |
| 1777534902 | 10° C | 54% | 1029.5 hPa | - | - | - | - |
| 1777534002 | 10° C | 54% | 1029.6 hPa | - | - | - | - |
| 1777533102 | 8.89° C | 58% | 1029.6 hPa | - | - | - | - |
| 1777532202 | 8.33° C | 59% | 1029.8 hPa | - | - | - | - |
| 1777531302 | 7.22° C | 62% | 1029.8 hPa | - | - | - | - |
| 1777530402 | 7.78° C | 65% | 1029.8 hPa | - | - | - | - |
| 1777529502 | 6.67° C | 65% | 1029.8 hPa | - | - | - | - |
| 1777528602 | 6.11° C | 68% | 1029.7 hPa | - | - | - | - |
| 1777527702 | 5.56° C | 70% | 1029.8 hPa | - | - | - | - |
| 1777526801 | 5° C | 72% | 1029.9 hPa | - | - | - | - |
| 1777525901 | 3.33° C | 76% | 1029.9 hPa | - | - | - | - |
| 1777525001 | 2.78° C | 79% | 1029.8 hPa | - | - | - | - |
| 1777524101 | 2.22° C | 80% | 1029.8 hPa | - | - | - | - |
| 1777523201 | 2.22° C | 80% | 1029.8 hPa | - | - | - | - |
| 1777522301 | 2.22° C | 81% | 1029.6 hPa | - | - | - | - |
| 1777521401 | 2.22° C | 80% | 1029.5 hPa | - | - | - | - |
| 1777520501 | 2.22° C | 81% | 1029.7 hPa | - | - | - | - |
| 1777519600 | 2.22° C | 81% | 1029.6 hPa | - | - | - | - |
| 1777518704 | 2.78° C | 80% | 1029.7 hPa | - | - | - | - |
| 1777518700 | 2.78° C | 80% | 1029.7 hPa | - | - | - | - |
* Rain since midnight (hover to see other rain measurements)
** Current wind speed in m/s (hover to see current wind gust speed)